Aviation Digital Data Service (ADDS)

Output produced by METARs form (2317 UTC 28 January 2020)
found at http://aviationweather.gov/metar/data/
 
KJQF 282250Z 00000KT 10SM CLR 10/02 A2998